Time;durP1;ratioP1;P1;durP2;ratioP2;P2;SDS_P1;SDS_P2;PMS_P1;PMS_P2;Temp;Humidity;BMP_temperature;BMP_pressure;BME280_temperature;BME280_humidity;BME280_pressure;Samples;Min_cycle;Max_cycle;Signal;HPM_P1;HPM_P2
2023/02/10 00:01:07;;;;;;;;;;;;;;;-4.00;100.00;97335.16;10522479;28;2105;-74
2023/02/10 00:06:10;;;;;;;;;;;;;;;-3.98;100.00;97344.53;10525882;28;2118;-74
2023/02/10 00:11:12;;;;;;;;;;;;;;;-3.91;100.00;97344.78;10522024;28;2084;-75
2023/02/10 00:16:14;;;;;;;;;;;;;;;-3.90;100.00;97352.53;10519231;28;2094;-74
2023/02/10 00:21:17;;;;;;;;;;;;;;;-3.88;100.00;97355.84;10502739;28;1937;-76
2023/02/10 00:26:19;;;;;;;;;;;;;;;-3.83;100.00;97358.03;10525070;28;2113;-77
2023/02/10 00:31:22;;;;;;;;;;;;;;;-3.97;100.00;97371.63;10519642;28;2066;-74
2023/02/10 00:36:24;;;;;;;;;;;;;;;-4.14;100.00;97381.06;10515614;28;2137;-74
2023/02/10 00:41:27;;;;;;;;;;;;;;;-4.21;100.00;97380.81;10518634;28;2195;-74
2023/02/10 00:46:29;;;;;;;;;;;;;;;-4.19;100.00;97389.41;10520755;28;2160;-73
2023/02/10 00:51:32;;;;;;;;;;;;;;;-4.20;100.00;97392.16;10523551;28;2019;-75
2023/02/10 00:56:34;;;;;;;;;;;;;;;-4.23;100.00;97393.28;10504495;28;2174;-74
2023/02/10 01:01:37;;;;;;;;;;;;;;;-4.15;100.00;97389.94;10520701;28;1979;-73
2023/02/10 01:06:39;;;;;;;;;;;;;;;-4.08;100.00;97397.09;10525647;28;2208;-74
2023/02/10 01:11:41;;;;;;;;;;;;;;;-4.03;100.00;97404.56;10523958;28;1997;-74
2023/02/10 01:16:44;;;;;;;;;;;;;;;-4.11;100.00;97401.81;10528142;28;2132;-74
2023/02/10 01:21:47;;;;;;;;;;;;;;;-4.19;100.00;97409.59;10525339;28;2143;-73
2023/02/10 01:26:49;;;;;;;;;;;;;;;-4.21;100.00;97409.69;10528735;28;1985;-74
2023/02/10 01:31:52;;;;;;;;;;;;;;;-4.30;100.00;97407.94;10529762;28;2092;-75
2023/02/10 01:36:54;;;;;;;;;;;;;;;-4.29;100.00;97406.13;10520372;28;2010;-73
2023/02/10 01:41:56;;;;;;;;;;;;;;;-4.23;100.00;97413.44;10527347;28;2124;-73
2023/02/10 01:46:59;;;;;;;;;;;;;;;-4.09;100.00;97415.63;10530398;28;2182;-74
2023/02/10 01:52:01;;;;;;;;;;;;;;;-4.02;100.00;97427.22;10525087;28;2012;-73
2023/02/10 01:57:04;;;;;;;;;;;;;;;-4.14;100.00;97425.72;10535598;28;2017;-73
2023/02/10 02:02:07;;;;;;;;;;;;;;;-4.09;100.00;97420.88;10528343;28;2358;-74
2023/02/10 02:07:09;;;;;;;;;;;;;;;-4.11;100.00;97428.09;10527163;28;2020;-75
2023/02/10 02:12:12;;;;;;;;;;;;;;;-4.16;100.00;97425.03;10544789;28;2020;-73
2023/02/10 02:17:14;;;;;;;;;;;;;;;-4.18;100.00;97434.88;10525784;28;2064;-74
2023/02/10 02:22:17;;;;;;;;;;;;;;;-4.17;100.00;97433.91;10540154;28;2183;-74
2023/02/10 02:27:19;;;;;;;;;;;;;;;-3.97;100.00;97439.94;10526846;28;2081;-74
2023/02/10 02:32:22;;;;;;;;;;;;;;;-3.98;100.00;97433.84;10521089;28;2037;-74
2023/02/10 02:37:24;;;;;;;;;;;;;;;-3.85;100.00;97444.06;10524973;28;2094;-76
2023/02/10 02:42:27;;;;;;;;;;;;;;;-3.92;100.00;97443.78;10524628;28;2122;-74
2023/02/10 02:47:29;;;;;;;;;;;;;;;-3.92;100.00;97438.53;10525338;28;2121;-72
2023/02/10 02:52:32;;;;;;;;;;;;;;;-3.95;100.00;97444.06;10527502;28;2087;-73
2023/02/10 02:57:34;;;;;;;;;;;;;;;-4.02;100.00;97442.97;10525474;28;2123;-75
2023/02/10 03:02:36;;;;;;;;;;;;;;;-4.10;100.00;97442.88;10520003;28;2061;-75
2023/02/10 03:07:39;;;;;;;;;;;;;;;-4.15;100.00;97437.19;10523051;28;2259;-74
2023/02/10 03:12:41;;;;;;;;;;;;;;;-4.15;100.00;97437.19;10520496;28;2057;-74
2023/02/10 03:17:44;;;;;;;;;;;;;;;-4.20;100.00;97447.28;10527142;28;2113;-74
2023/02/10 03:22:46;;;;;;;;;;;;;;;-4.12;100.00;97436.94;10526585;28;2080;-75
2023/02/10 03:27:49;;;;;;;;;;;;;;;-4.09;100.00;97434.84;10524065;28;2117;-73
2023/02/10 03:32:53;;;;;;;;;;;;;;;-4.15;100.00;97442.44;10523701;28;2006;-73
2023/02/10 03:37:55;;;;;;;;;;;;;;;-4.26;100.00;97442.59;10524982;28;1978;-74
2023/02/10 03:42:57;;;;;;;;;;;;;;;-4.29;100.00;97456.03;10520655;28;2145;-73
2023/02/10 03:48:00;;;;;;;;;;;;;;;-4.19;100.00;97459.47;10522300;28;2076;-74
2023/02/10 03:53:02;;;;;;;;;;;;;;;-4.11;100.00;97455.16;10524556;28;2061;-74
2023/02/10 03:58:05;;;;;;;;;;;;;;;-4.14;100.00;97449.34;10523290;28;2057;-76
2023/02/10 04:03:07;;;;;;;;;;;;;;;-4.16;100.00;97436.38;10525124;28;2009;-74
2023/02/10 04:08:10;;;;;;;;;;;;;;;-4.08;100.00;97447.00;10526592;28;2038;-75
2023/02/10 04:13:12;;;;;;;;;;;;;;;-4.09;100.00;97447.97;10534073;28;2056;-75
2023/02/10 04:18:14;;;;;;;;;;;;;;;-4.13;100.00;97465.00;10526075;28;2041;-74
2023/02/10 04:23:17;;;;;;;;;;;;;;;-4.13;100.00;97458.91;10520895;28;2057;-75
2023/02/10 04:28:19;;;;;;;;;;;;;;;-4.20;100.00;97457.78;10526167;28;2013;-74
2023/02/10 04:33:23;;;;;;;;;;;;;;;-4.26;100.00;97466.22;10526324;28;2054;-79
2023/02/10 04:38:25;;;;;;;;;;;;;;;-4.35;100.00;97476.59;10521485;28;2042;-75
2023/02/10 04:43:28;;;;;;;;;;;;;;;-4.39;100.00;97482.25;10527344;28;2006;-74
2023/02/10 04:48:30;;;;;;;;;;;;;;;-4.47;100.00;97482.97;10532749;28;2076;-74
2023/02/10 04:53:32;;;;;;;;;;;;;;;-4.53;100.00;97480.88;10537563;28;2051;-74
2023/02/10 04:58:35;;;;;;;;;;;;;;;-4.56;100.00;97490.84;10532478;28;1950;-74
2023/02/10 05:03:37;;;;;;;;;;;;;;;-4.53;100.00;97478.25;10526657;28;2037;-74
2023/02/10 05:08:41;;;;;;;;;;;;;;;-4.55;100.00;97482.00;10553275;27;2076;-74
2023/02/10 05:13:43;;;;;;;;;;;;;;;-4.56;100.00;97481.19;10530575;28;1938;-74
2023/02/10 05:18:46;;;;;;;;;;;;;;;-4.55;100.00;97503.00;10527287;28;2172;-74
2023/02/10 05:23:48;;;;;;;;;;;;;;;-4.63;100.00;97503.69;10524902;28;2060;-76
2023/02/10 05:28:51;;;;;;;;;;;;;;;-4.68;100.00;97508.50;10528641;28;2105;-73
2023/02/10 05:33:53;;;;;;;;;;;;;;;-4.76;100.00;97513.63;10523921;28;2049;-74
2023/02/10 05:44:16;;;;;;;;;;;;;;;-4.88;100.00;97530.44;10524833;28;2180;-75
2023/02/10 05:49:18;;;;;;;;;;;;;;;-4.96;100.00;97531.94;10503388;28;2062;-74
2023/02/10 05:54:20;;;;;;;;;;;;;;;-5.05;100.00;97543.19;10529145;28;2087;-73
2023/02/10 05:59:23;;;;;;;;;;;;;;;-5.11;100.00;97543.72;10534632;28;2116;-73
2023/02/10 06:04:25;;;;;;;;;;;;;;;-5.22;100.00;97551.69;10527962;28;1989;-75
2023/02/10 06:09:27;;;;;;;;;;;;;;;-5.30;100.00;97554.13;10529166;28;2022;-74
2023/02/10 06:14:30;;;;;;;;;;;;;;;-5.26;100.00;97556.38;10503251;28;2064;-75
2023/02/10 06:19:32;;;;;;;;;;;;;;;-5.18;100.00;97550.47;10528532;28;1946;-75
2023/02/10 06:24:34;;;;;;;;;;;;;;;-5.10;100.00;97558.50;10526136;28;1998;-76
2023/02/10 06:29:37;;;;;;;;;;;;;;;-5.04;100.00;97562.38;10528334;28;2018;-73
2023/02/10 06:34:40;;;;;;;;;;;;;;;-4.99;100.00;97568.91;10523153;28;2022;-76
2023/02/10 06:39:43;;;;;;;;;;;;;;;-4.85;100.00;97566.88;10523438;28;2094;-74
2023/02/10 06:44:45;;;;;;;;;;;;;;;-4.80;100.00;97572.56;10527994;28;2100;-75
2023/02/10 06:49:48;;;;;;;;;;;;;;;-4.66;100.00;97580.03;10525076;28;2090;-74
2023/02/10 06:54:50;;;;;;;;;;;;;;;-4.62;100.00;97584.06;10526571;28;1986;-73
2023/02/10 06:59:53;;;;;;;;;;;;;;;-4.47;100.00;97595.84;10520911;28;2052;-73
2023/02/10 07:04:55;;;;;;;;;;;;;;;-4.36;100.00;97592.28;10528928;28;2059;-73
2023/02/10 07:09:57;;;;;;;;;;;;;;;-4.19;100.00;97601.28;10523857;28;2072;-73
2023/02/10 07:15:00;;;;;;;;;;;;;;;-4.10;100.00;97597.81;10524910;28;2055;-74
2023/02/10 07:20:03;;;;;;;;;;;;;;;-4.02;100.00;97600.59;10526421;28;2156;-74
2023/02/10 07:25:05;;;;;;;;;;;;;;;-3.87;100.00;97614.16;10519935;28;2020;-72
2023/02/10 07:30:07;;;;;;;;;;;;;;;-3.76;100.00;97611.38;10529179;28;1994;-75
2023/02/10 07:35:10;;;;;;;;;;;;;;;-3.61;100.00;97603.91;10520676;28;2033;-74
2023/02/10 07:40:12;;;;;;;;;;;;;;;-3.52;100.00;97608.31;10524929;28;2051;-75
2023/02/10 07:45:14;;;;;;;;;;;;;;;-3.37;100.00;97621.84;10521666;28;2107;-74
2023/02/10 07:50:17;;;;;;;;;;;;;;;-3.22;100.00;97628.34;10521056;28;2006;-74
2023/02/10 07:55:19;;;;;;;;;;;;;;;-2.98;100.00;97617.34;10522811;28;2053;-74
2023/02/10 08:00:21;;;;;;;;;;;;;;;-2.77;100.00;97628.47;10519658;28;2013;-75
2023/02/10 08:05:24;;;;;;;;;;;;;;;-2.67;100.00;97635.47;10521619;28;1997;-73
2023/02/10 08:10:26;;;;;;;;;;;;;;;-2.51;100.00;97635.69;10523145;28;2042;-73
2023/02/10 08:15:29;;;;;;;;;;;;;;;-2.40;100.00;97632.88;10520850;28;2089;-74
2023/02/10 08:20:31;;;;;;;;;;;;;;;-2.25;100.00;97623.47;10528871;28;2010;-75
2023/02/10 08:25:34;;;;;;;;;;;;;;;-2.12;100.00;97624.94;10529613;28;2037;-75
2023/02/10 08:30:36;;;;;;;;;;;;;;;-1.99;100.00;97630.66;10525079;28;2012;-73
2023/02/10 08:35:39;;;;;;;;;;;;;;;-1.86;100.00;97630.31;10523615;28;2083;-75
2023/02/10 08:40:41;;;;;;;;;;;;;;;-1.74;100.00;97629.94;10524622;28;2060;-74
2023/02/10 08:45:43;;;;;;;;;;;;;;;-1.61;100.00;97623.44;10518785;28;2075;-73
2023/02/10 08:50:46;;;;;;;;;;;;;;;-1.41;100.00;97627.56;10525287;28;2073;-74
2023/02/10 08:55:48;;;;;;;;;;;;;;;-1.22;100.00;97627.38;10520285;28;2135;-74
2023/02/10 09:00:51;;;;;;;;;;;;;;;-1.09;100.00;97630.44;10521378;28;2010;-75
2023/02/10 09:05:53;;;;;;;;;;;;;;;-0.90;100.00;97633.84;10517535;28;2089;-74
2023/02/10 09:10:57;;;;;;;;;;;;;;;-0.73;100.00;97630.31;10526896;28;2080;-75
2023/02/10 09:16:00;;;;;;;;;;;;;;;-0.56;100.00;97633.88;10522138;28;2047;-74
2023/02/10 09:21:02;;;;;;;;;;;;;;;-0.47;100.00;97640.03;10523638;28;2157;-74
2023/02/10 09:26:04;;;;;;;;;;;;;;;-0.36;100.00;97632.63;10523323;28;2063;-75
2023/02/10 09:31:07;;;;;;;;;;;;;;;-0.12;100.00;97639.84;10526433;28;1951;-75
2023/02/10 09:36:10;;;;;;;;;;;;;;;-0.05;100.00;97635.56;10527781;28;2152;-75
2023/02/10 09:41:12;;;;;;;;;;;;;;;0.03;100.00;97647.97;10526488;28;2113;-74
2023/02/10 09:46:15;;;;;;;;;;;;;;;0.08;100.00;97647.47;10524481;28;2057;-74
2023/02/10 09:51:17;;;;;;;;;;;;;;;0.21;100.00;97661.06;10519815;28;2080;-75
2023/02/10 09:56:21;;;;;;;;;;;;;;;0.34;100.00;97650.84;10539748;28;2031;-73
2023/02/10 10:01:23;;;;;;;;;;;;;;;0.44;100.00;97654.13;10528694;28;2085;-74
2023/02/10 10:06:26;;;;;;;;;;;;;;;0.58;100.00;97647.41;10532308;28;2048;-75
2023/02/10 10:11:28;;;;;;;;;;;;;;;0.71;100.00;97641.59;10523825;28;2041;-75
2023/02/10 10:16:30;;;;;;;;;;;;;;;0.82;100.00;97646.53;10528382;28;2156;-75
2023/02/10 10:21:33;;;;;;;;;;;;;;;0.87;100.00;97636.28;10526078;28;2069;-75
2023/02/10 10:26:35;;;;;;;;;;;;;;;0.78;100.00;97638.13;10524832;28;2093;-75
2023/02/10 10:31:38;;;;;;;;;;;;;;;1.06;100.00;97630.63;10528827;28;2022;-76
2023/02/10 10:36:41;;;;;;;;;;;;;;;1.22;100.00;97618.38;10521876;28;1550;-75
2023/02/10 10:41:43;;;;;;;;;;;;;;;1.21;100.00;97614.03;10526867;28;1902;-74
2023/02/10 10:46:45;;;;;;;;;;;;;;;1.26;100.00;97620.47;10519310;28;1966;-74
2023/02/10 10:51:48;;;;;;;;;;;;;;;1.47;100.00;97613.81;10525548;28;1954;-76
2023/02/10 10:56:51;;;;;;;;;;;;;;;1.55;100.00;97613.78;10528230;28;1973;-75
2023/02/10 11:01:53;;;;;;;;;;;;;;;1.67;100.00;97595.69;10521566;28;1990;-74
2023/02/10 11:06:55;;;;;;;;;;;;;;;1.78;100.00;97584.66;10529994;28;2081;-75
2023/02/10 11:11:58;;;;;;;;;;;;;;;1.85;100.00;97572.41;10528188;28;2030;-76
2023/02/10 11:17:01;;;;;;;;;;;;;;;1.86;100.00;97568.72;10523054;28;1985;-78
2023/02/10 11:22:04;;;;;;;;;;;;;;;1.86;100.00;97558.94;10523734;28;2078;-75
2023/02/10 11:27:06;;;;;;;;;;;;;;;2.12;100.00;97558.63;10526781;28;2133;-75
2023/02/10 11:32:09;;;;;;;;;;;;;;;2.24;100.00;97547.59;10522429;28;2212;-75
2023/02/10 11:37:11;;;;;;;;;;;;;;;2.20;100.00;97551.59;10542099;28;1982;-74
2023/02/10 11:42:14;;;;;;;;;;;;;;;2.32;100.00;97540.38;10525217;28;1970;-74
2023/02/10 11:47:16;;;;;;;;;;;;;;;2.40;100.00;97542.97;10523852;28;2016;-76
2023/02/10 11:52:21;;;;;;;;;;;;;;;2.41;100.00;97535.81;10524886;28;2022;-74
2023/02/10 12:02:44;;;;;;;;;;;;;;;2.49;100.00;97519.84;10527474;28;2146;-75
2023/02/10 12:07:46;;;;;;;;;;;;;;;2.56;100.00;97528.75;10525196;28;2018;-75
2023/02/10 12:12:48;;;;;;;;;;;;;;;2.65;100.00;97519.69;10521689;28;2148;-76
2023/02/10 12:17:51;;;;;;;;;;;;;;;2.72;100.00;97523.25;10528386;28;1887;-74
2023/02/10 12:22:53;;;;;;;;;;;;;;;2.83;100.00;97521.19;10521609;28;1900;-74
2023/02/10 12:27:55;;;;;;;;;;;;;;;2.88;100.00;97516.97;10522788;28;2054;-76
2023/02/10 12:32:58;;;;;;;;;;;;;;;2.97;100.00;97501.75;10523429;28;1974;-74
2023/02/10 12:38:00;;;;;;;;;;;;;;;3.01;100.00;97505.72;10524208;28;1970;-75
2023/02/10 12:43:03;;;;;;;;;;;;;;;2.96;100.00;97497.44;10523546;28;2141;-74
2023/02/10 12:48:06;;;;;;;;;;;;;;;3.01;98.94;97500.38;10516099;28;1967;-75
2023/02/10 12:53:11;;;;;;;;;;;;;;;2.96;98.14;97494.81;10520799;28;2038;-73
2023/02/10 12:58:13;;;;;;;;;;;;;;;3.15;97.59;97496.91;10511929;28;2013;-74
2023/02/10 13:03:16;;;;;;;;;;;;;;;3.29;95.38;97491.75;10517745;28;1984;-74
2023/02/10 13:08:18;;;;;;;;;;;;;;;3.25;93.99;97486.81;10530573;28;2157;-74
2023/02/10 13:13:21;;;;;;;;;;;;;;;3.37;87.51;97481.00;10530964;28;1958;-76
2023/02/10 13:18:23;;;;;;;;;;;;;;;3.39;88.33;97481.66;10529952;28;2042;-74
2023/02/10 13:23:26;;;;;;;;;;;;;;;3.63;86.67;97476.00;10521929;28;2097;-75
2023/02/10 13:28:28;;;;;;;;;;;;;;;3.57;84.90;97463.47;10534563;28;2053;-75
2023/02/10 13:33:30;;;;;;;;;;;;;;;3.55;81.77;97470.78;10526738;28;1946;-75
2023/02/10 13:38:33;;;;;;;;;;;;;;;3.48;79.59;97469.91;10526915;28;2209;-76
2023/02/10 13:43:35;;;;;;;;;;;;;;;3.27;82.86;97467.19;10525323;28;2018;-73
2023/02/10 13:48:38;;;;;;;;;;;;;;;3.15;87.33;97467.66;10528454;28;1986;-76
2023/02/10 13:53:41;;;;;;;;;;;;;;;3.12;90.93;97475.19;10528257;28;2122;-74
2023/02/10 13:58:44;;;;;;;;;;;;;;;3.01;92.86;97475.66;10529879;28;1978;-74
2023/02/10 14:03:46;;;;;;;;;;;;;;;2.94;93.61;97468.44;10532640;28;1988;-74
2023/02/10 14:08:51;;;;;;;;;;;;;;;3.09;94.54;97470.25;10529989;28;2046;-77
2023/02/10 14:14:01;;;;;;;;;;;;;;;3.12;91.52;97454.75;10523606;28;2033;-76
2023/02/10 14:19:05;;;;;;;;;;;;;;;3.13;91.08;97466.22;10526742;28;1974;-77
2023/02/10 14:24:08;;;;;;;;;;;;;;;3.13;90.87;97461.72;10526893;28;2055;-76
2023/02/10 14:29:27;;;;;;;;;;;;;;;3.18;92.02;97469.13;10528668;28;1962;-74
2023/02/10 14:34:29;;;;;;;;;;;;;;;3.10;93.32;97469.22;10526568;28;2078;-75
2023/02/10 14:39:31;;;;;;;;;;;;;;;3.12;95.33;97485.81;10526013;28;1959;-75
2023/02/10 14:44:33;;;;;;;;;;;;;;;3.01;99.64;97471.16;10525114;28;2069;-74
2023/02/10 14:49:36;;;;;;;;;;;;;;;2.86;100.00;97465.03;10534200;28;2070;-74
2023/02/10 14:54:39;;;;;;;;;;;;;;;3.00;100.00;97466.88;10534563;28;1967;-77
2023/02/10 14:59:42;;;;;;;;;;;;;;;2.91;100.00;97467.94;10525485;28;2018;-75
2023/02/10 15:04:44;;;;;;;;;;;;;;;2.74;100.00;97463.84;10522534;28;1990;-74
2023/02/10 15:09:47;;;;;;;;;;;;;;;2.82;100.00;97464.56;10525437;28;1962;-75
2023/02/10 15:14:50;;;;;;;;;;;;;;;2.69;100.00;97467.88;10526645;28;1974;-74
2023/02/10 15:19:53;;;;;;;;;;;;;;;2.78;100.00;97470.44;10539925;28;1970;-75
2023/02/10 15:24:55;;;;;;;;;;;;;;;2.69;100.00;97473.19;10503500;28;2029;-76
2023/02/10 15:29:57;;;;;;;;;;;;;;;2.71;100.00;97479.13;10526810;28;1993;-78
2023/02/10 15:34:59;;;;;;;;;;;;;;;2.57;100.00;97487.91;10521786;28;2042;-76
2023/02/10 15:40:03;;;;;;;;;;;;;;;2.51;100.00;97490.47;10540134;28;2020;-75
2023/02/10 15:45:05;;;;;;;;;;;;;;;2.44;100.00;97477.09;10517329;28;2140;-74
2023/02/10 15:50:08;;;;;;;;;;;;;;;2.32;100.00;97492.63;10522403;28;2029;-74
2023/02/10 15:55:10;;;;;;;;;;;;;;;2.25;100.00;97485.56;10518306;28;2093;-74
2023/02/10 16:00:12;;;;;;;;;;;;;;;2.10;100.00;97496.97;10525029;28;1986;-74
2023/02/10 16:05:15;;;;;;;;;;;;;;;1.99;100.00;97504.50;10523635;28;1980;-75
2023/02/10 16:10:18;;;;;;;;;;;;;;;1.83;100.00;97505.44;10520787;28;1970;-75
2023/02/10 16:15:20;;;;;;;;;;;;;;;1.83;100.00;97508.06;10517016;28;2010;-76
2023/02/10 16:20:23;;;;;;;;;;;;;;;1.69;100.00;97519.44;10522262;28;2094;-75
2023/02/10 16:25:25;;;;;;;;;;;;;;;1.61;100.00;97517.66;10520027;28;2015;-73
2023/02/10 16:30:28;;;;;;;;;;;;;;;1.33;100.00;97512.00;10523670;28;2061;-77
2023/02/10 16:35:31;;;;;;;;;;;;;;;1.31;100.00;97519.31;10516601;28;2110;-76
2023/02/10 16:40:33;;;;;;;;;;;;;;;1.23;100.00;97530.78;10520151;28;2085;-74
2023/02/10 16:45:35;;;;;;;;;;;;;;;1.01;100.00;97537.63;10529676;28;1981;-76
2023/02/10 16:50:38;;;;;;;;;;;;;;;0.76;100.00;97543.97;10530465;28;1994;-75
2023/02/10 16:55:40;;;;;;;;;;;;;;;0.68;100.00;97544.00;10532399;28;2096;-78
2023/02/10 17:00:43;;;;;;;;;;;;;;;0.43;100.00;97557.25;10524501;28;1966;-75
2023/02/10 17:05:45;;;;;;;;;;;;;;;0.19;100.00;97558.09;10526032;28;2037;-76
2023/02/10 17:10:48;;;;;;;;;;;;;;;0.07;100.00;97558.56;10519561;28;2074;-75
2023/02/10 17:15:50;;;;;;;;;;;;;;;-0.12;100.00;97560.53;10533264;28;1915;-75
2023/02/10 17:20:53;;;;;;;;;;;;;;;-0.32;100.00;97570.56;10529169;28;1965;-75
2023/02/10 17:25:57;;;;;;;;;;;;;;;-0.42;100.00;97566.41;10530445;28;1989;-75
2023/02/10 17:30:59;;;;;;;;;;;;;;;-0.46;100.00;97565.88;10510379;28;2072;-75
2023/02/10 17:36:01;;;;;;;;;;;;;;;-0.46;100.00;97570.34;10528976;28;1982;-75
2023/02/10 17:41:04;;;;;;;;;;;;;;;-0.53;100.00;97578.06;10529677;28;2029;-75
2023/02/10 17:46:06;;;;;;;;;;;;;;;-0.35;100.00;97583.25;10526845;28;2045;-75
2023/02/10 17:51:09;;;;;;;;;;;;;;;-0.56;100.00;97586.34;10530416;28;2057;-76
2023/02/10 17:56:12;;;;;;;;;;;;;;;-0.65;100.00;97590.75;10529550;28;2176;-75
2023/02/10 18:01:14;;;;;;;;;;;;;;;-0.72;100.00;97591.53;10526004;28;2066;-75
2023/02/10 18:06:17;;;;;;;;;;;;;;;-0.74;100.00;97594.34;10531789;28;2167;-75
2023/02/10 18:11:19;;;;;;;;;;;;;;;-0.85;100.00;97594.59;10521942;28;2101;-76
2023/02/10 18:16:22;;;;;;;;;;;;;;;-0.94;100.00;97596.38;10525543;28;1958;-76
2023/02/10 18:21:24;;;;;;;;;;;;;;;-0.95;100.00;97580.72;10534888;28;1978;-77
2023/02/10 18:26:27;;;;;;;;;;;;;;;-0.95;100.00;97583.34;10533001;28;2046;-76
2023/02/10 18:31:29;;;;;;;;;;;;;;;-1.02;100.00;97588.41;10526160;28;2215;-77
2023/02/10 18:36:32;;;;;;;;;;;;;;;-1.04;100.00;97579.00;10541017;28;2065;-75
2023/02/10 18:41:34;;;;;;;;;;;;;;;-1.10;100.00;97580.44;10533004;28;1981;-75
2023/02/10 18:46:36;;;;;;;;;;;;;;;-1.18;100.00;97578.59;10533234;28;1963;-75
2023/02/10 18:51:39;;;;;;;;;;;;;;;-1.19;100.00;97581.41;10527198;28;1978;-74
2023/02/10 18:56:41;;;;;;;;;;;;;;;-1.28;100.00;97577.84;10523401;28;2006;-75
2023/02/10 19:01:44;;;;;;;;;;;;;;;-1.31;100.00;97577.34;10526457;28;2029;-75
2023/02/10 19:06:47;;;;;;;;;;;;;;;-1.30;100.00;97558.72;10523814;28;2002;-74
2023/02/10 19:11:49;;;;;;;;;;;;;;;-1.34;100.00;97581.13;10526110;28;1974;-75
2023/02/10 19:16:52;;;;;;;;;;;;;;;-1.30;100.00;97582.47;10533251;28;1855;-76
2023/02/10 19:21:54;;;;;;;;;;;;;;;-1.32;100.00;97579.16;10528714;28;1655;-74
2023/02/10 19:26:57;;;;;;;;;;;;;;;-1.34;100.00;97582.94;10532804;28;1887;-75
2023/02/10 19:31:59;;;;;;;;;;;;;;;-1.45;100.00;97576.13;10516544;28;1915;-75
2023/02/10 19:37:02;;;;;;;;;;;;;;;-1.56;100.00;97586.91;10524789;28;1977;-74
2023/02/10 19:42:05;;;;;;;;;;;;;;;-1.55;100.00;97592.00;10505644;28;2141;-75
2023/02/10 19:47:07;;;;;;;;;;;;;;;-1.56;100.00;97597.44;10527401;28;1986;-75
2023/02/10 19:52:10;;;;;;;;;;;;;;;-1.62;100.00;97590.97;10526815;28;2057;-75
2023/02/10 19:57:12;;;;;;;;;;;;;;;-1.70;100.00;97589.09;10537589;28;2109;-76
2023/02/10 20:02:15;;;;;;;;;;;;;;;-1.80;100.00;97590.16;10524891;28;2002;-74
2023/02/10 20:07:19;;;;;;;;;;;;;;;-1.81;100.00;97602.50;10524564;28;1978;-75
2023/02/10 20:12:21;;;;;;;;;;;;;;;-1.80;100.00;97598.88;10523051;28;2077;-74
2023/02/10 20:17:24;;;;;;;;;;;;;;;-1.71;100.00;97613.00;10523609;28;2030;-74
2023/02/10 20:22:27;;;;;;;;;;;;;;;-1.76;100.00;97613.44;10519197;28;1991;-76
2023/02/10 20:27:30;;;;;;;;;;;;;;;-1.85;100.00;97611.69;10521697;28;1946;-75
2023/02/10 20:32:32;;;;;;;;;;;;;;;-1.90;100.00;97608.69;10523277;28;1970;-74
2023/02/10 20:37:35;;;;;;;;;;;;;;;-1.95;100.00;97610.97;10517589;28;2169;-75
2023/02/10 20:42:37;;;;;;;;;;;;;;;-1.96;100.00;97615.41;10513931;28;2034;-76
2023/02/10 20:47:40;;;;;;;;;;;;;;;-2.01;100.00;97619.47;10522824;28;2191;-74
2023/02/10 20:52:43;;;;;;;;;;;;;;;-2.05;100.00;97616.28;10526223;28;1954;-75
2023/02/10 20:57:46;;;;;;;;;;;;;;;-2.12;100.00;97611.75;10526688;28;1907;-74
2023/02/10 21:02:49;;;;;;;;;;;;;;;-2.21;100.00;97619.59;10521775;28;2006;-75
2023/02/10 21:07:51;;;;;;;;;;;;;;;-2.28;100.00;97629.06;10517956;28;1959;-74
2023/02/10 21:12:54;;;;;;;;;;;;;;;-2.30;100.00;97611.72;10525131;28;2049;-76
2023/02/10 21:17:56;;;;;;;;;;;;;;;-2.37;100.00;97611.50;10521511;28;2018;-74
2023/02/10 21:22:59;;;;;;;;;;;;;;;-2.42;100.00;97610.28;10526612;28;2382;-75
2023/02/10 21:28:01;;;;;;;;;;;;;;;-2.47;100.00;97594.94;10532213;28;2057;-75
2023/02/10 21:33:04;;;;;;;;;;;;;;;-2.50;100.00;97597.84;10533500;28;1999;-76
2023/02/10 21:38:06;;;;;;;;;;;;;;;-2.53;100.00;97587.63;10533522;28;1994;-76
2023/02/10 21:43:09;;;;;;;;;;;;;;;-2.46;100.00;97591.31;10527017;28;2030;-74
2023/02/10 21:48:11;;;;;;;;;;;;;;;-2.50;100.00;97574.97;10528780;28;2006;-73
2023/02/10 21:53:14;;;;;;;;;;;;;;;-2.48;100.00;97573.03;10538106;28;1431;-75
2023/02/10 21:58:18;;;;;;;;;;;;;;;-2.46;100.00;97565.00;10538478;28;1184;-76
2023/02/10 22:03:20;;;;;;;;;;;;;;;-2.39;100.00;97560.78;10544076;28;1958;-74
2023/02/10 22:08:25;;;;;;;;;;;;;;;-2.23;100.00;97553.06;10528787;28;2049;-74
2023/02/10 22:13:27;;;;;;;;;;;;;;;-2.26;100.00;97553.34;10527914;28;2085;-75
2023/02/10 22:18:30;;;;;;;;;;;;;;;-2.33;100.00;97557.56;10525417;28;1970;-73
2023/02/10 22:23:32;;;;;;;;;;;;;;;-2.37;100.00;97548.28;10530311;28;2156;-76
2023/02/10 22:28:35;;;;;;;;;;;;;;;-2.41;100.00;97546.94;10531838;28;1966;-75
2023/02/10 22:33:38;;;;;;;;;;;;;;;-2.42;100.00;97545.25;10521287;28;2018;-75
2023/02/10 22:38:40;;;;;;;;;;;;;;;-2.48;100.00;97546.72;10526713;28;2057;-73
2023/02/10 22:43:43;;;;;;;;;;;;;;;-2.45;100.00;97548.22;10525075;28;2022;-77
2023/02/10 22:48:45;;;;;;;;;;;;;;;-2.46;100.00;97554.47;10528178;28;1956;-75
2023/02/10 22:53:48;;;;;;;;;;;;;;;-2.43;100.00;97551.50;10525968;28;2125;-74
2023/02/10 22:58:50;;;;;;;;;;;;;;;-2.52;100.00;97549.78;10525500;28;1999;-77
2023/02/10 23:03:52;;;;;;;;;;;;;;;-2.54;100.00;97547.31;10526754;28;1958;-75
2023/02/10 23:08:55;;;;;;;;;;;;;;;-2.65;100.00;97546.69;10521835;28;2019;-74
2023/02/10 23:13:57;;;;;;;;;;;;;;;-2.66;100.00;97534.50;10525225;28;1923;-73
2023/02/10 23:19:00;;;;;;;;;;;;;;;-2.61;100.00;97530.44;10540341;28;2051;-75
2023/02/10 23:24:02;;;;;;;;;;;;;;;-2.51;100.00;97535.63;10526289;28;2019;-74
2023/02/10 23:29:04;;;;;;;;;;;;;;;-2.58;100.00;97539.84;10526768;28;2529;-74
2023/02/10 23:34:07;;;;;;;;;;;;;;;-2.72;100.00;97538.53;10522749;28;2064;-75
2023/02/10 23:39:09;;;;;;;;;;;;;;;-2.80;100.00;97536.66;10536088;28;2006;-75
2023/02/10 23:44:13;;;;;;;;;;;;;;;-2.75;100.00;97537.00;10526238;28;1981;-75
2023/02/10 23:49:16;;;;;;;;;;;;;;;-2.84;100.00;97540.53;10529852;28;2092;-75
2023/02/10 23:54:18;;;;;;;;;;;;;;;-2.89;100.00;97547.22;10529036;28;1864;-75
2023/02/10 23:59:21;;;;;;;;;;;;;;;-2.97;100.00;97545.31;10529324;28;1919;-75
